CDT,Max TemperatureF,Mean TemperatureF,Min TemperatureF,Max Dew PointF,MeanDew PointF,Min DewpointF,Max Humidity, Mean Humidity, Min Humidity, Max Sea Level PressureIn, Mean Sea Level PressureIn, Min Sea Level PressureIn, Max VisibilityMiles, Mean VisibilityMiles, Min VisibilityMiles, Max Wind SpeedMPH, Mean Wind SpeedMPH, Max Gust SpeedMPH,PrecipitationIn, CloudCover, Events, WindDirDegrees
2012-10-1,68,57,44,57,45,36,100,69,40,30.07,30.02,29.94,10,10,4,25,10,34,0.10,3,Rain,338
2012-10-2,73,52,32,37,31,25,100,51,16,30.05,29.96,29.86,10,10,10,12,3,16,0.50,0,Thunderstorm,197
2012-10-3,82,62,41,45,39,32,76,45,23,30.01,29.84,29.74,10,10,9,25,12,32,0.00,0,,189
2012-10-4,55,48,39,41,33,28,81,57,36,30.33,30.24,30.02,10,10,10,25,16,36,0.00,3,Thunderstorm,350
2012-10-5,50,41,32,30,25,18,87,57,30,30.37,30.32,30.27,10,10,9,17,5,25,0.00,2,,346
2012-10-6,44,34,24,21,19,16,80,50,34,30.40,30.34,30.30,10,10,8,16,7,23,0.00,1,,344
2012-10-7,55,39,23,32,25,18,100,64,26,30.32,30.18,30.02,10,10,8,18,6,26,0.00,0,,248
2012-10-8,73,52,32,34,29,19,100,52,14,30.02,29.89,29.78,10,10,9,23,10,31,0.00,0,,219
2012-10-9,57,44,32,41,28,18,81,50,23,30.17,29.98,29.82,10,10,10,25,10,44,0.00,0,,342
2012-10-10,64,45,26,27,24,18,86,49,22,30.24,30.14,30.03,10,10,9,16,8,22,0.00,0,,237
2012-10-11,60,50,41,32,29,25,70,48,34,30.33,30.11,29.99,10,10,10,28,12,36,0.00,1,,42
2012-10-12,51,41,32,41,27,19,71,53,32,30.34,30.23,30.00,10,10,10,18,13,21,0.00,7,,116
2012-10-13,73,62,50,66,58,50,100,93,65,29.96,29.74,29.61,10,9,1,20,10,23,0.46,5,Rain-Thunderstorm,206
2012-10-14,71,58,46,50,41,37,82,56,29,30.01,29.91,29.65,10,10,5,22,12,30,0.00,1,Thunderstorm,337
2012-10-15,78,60,41,46,40,36,87,56,22,30.00,29.89,29.73,10,10,5,13,7,18,0.00,0,,208
2012-10-16,78,63,48,46,43,37,93,50,23,29.72,29.57,29.41,10,10,8,18,10,25,0.00,0,,246
2012-10-17,66,56,46,54,32,16,100,43,16,29.69,29.55,29.38,10,10,7,38,20,53,0.01,2,Rain,306
2012-10-18,50,47,44,34,26,19,58,42,32,29.73,29.66,29.61,10,9,5,46,27,59,0.00,5,Rain,312
2012-10-19,57,47,37,37,34,32,93,60,44,29.84,29.80,29.72,10,10,4,33,21,45,0.00,3,Rain,340
2012-10-20,71,53,35,41,36,27,100,65,23,29.81,29.74,29.66,10,10,5,18,6,23,0.00,0,,158
2012-10-21,80,60,41,61,51,39,100,68,48,29.80,29.72,29.68,10,10,9,14,7,22,0.00,1,,135
2012-10-22,59,54,48,52,50,45,100,94,59,29.85,29.81,29.76,10,3,0,20,13,25,0.00,8,Fog-Rain,11
2012-10-23,66,57,48,64,55,48,100,98,78,29.80,29.73,29.67,9,3,0,9,1,,0.01,7,Fog-Rain,325
2012-10-24,55,50,44,55,50,45,100,100,100,29.81,29.78,29.74,10,3,0,25,13,34,0.00,8,Fog-Rain-Thunderstorm,23
2012-10-25,44,38,32,45,34,27,100,92,80,30.35,30.08,29.76,10,9,3,23,17,33,0.46,7,Rain-Snow-Thunderstorm,347
2012-10-26,41,34,26,28,25,23,100,72,52,30.52,30.45,30.36,10,10,10,15,9,20,0.00,5,,342
2012-10-27,44,34,24,30,27,25,100,77,53,30.41,30.31,30.21,10,10,10,13,2,16,0.00,3,,185
2012-10-28,53,42,30,32,30,28,100,69,38,30.27,30.21,30.14,10,10,10,18,6,25,0.00,4,,172
2012-10-29,60,50,39,34,30,28,70,51,34,30.16,30.10,30.04,10,10,10,21,12,25,0.00,2,,163
2012-10-30,57,46,35,34,32,30,87,63,38,30.05,30.03,29.99,10,10,10,15,9,16,0.00,2,,110
2012-10-31,68,50,32,41,35,30,100,66,35,30.07,30.02,29.96,10,10,9,8,3,,0.00,2,,203